Time;durP1;ratioP1;P1;durP2;ratioP2;P2;SDS_P1;SDS_P2;PMS_P1;PMS_P2;Temp;Humidity;BMP_temperature;BMP_pressure;BME280_temperature;BME280_humidity;BME280_pressure;Samples;Min_cycle;Max_cycle;Signal;HPM_P1;HPM_P2
2021/09/11 00:00:28;;;;;;;14.75;6.95;;;;;;;6.52;93.35;93539.09;1727055;81;20978;-91
2021/09/11 00:02:54;;;;;;;8.63;6.78;;;;;;;6.55;93.20;93531.60;1748179;80;21149;-90
2021/09/11 00:05:23;;;;;;;12.70;6.72;;;;;;;6.60;93.22;93528.57;1776853;78;21031;-87
2021/09/11 00:07:51;;;;;;;14.47;7.55;;;;;;;6.63;93.15;93527.06;1794367;77;21064;-90
2021/09/11 00:10:19;;;;;;;13.03;7.90;;;;;;;6.66;93.13;93531.74;1822570;77;21049;-90
2021/09/11 00:12:47;;;;;;;11.57;7.00;;;;;;;6.67;93.08;93527.89;1786233;78;21096;-89
2021/09/11 00:15:17;;;;;;;9.80;5.62;;;;;;;6.67;92.77;93527.89;1821394;76;22332;-89
2021/09/11 00:17:47;;;;;;;10.40;6.37;;;;;;;6.66;92.47;93528.47;1749450;77;21072;-89
2021/09/11 00:20:14;;;;;;;8.33;5.58;;;;;;;6.64;92.53;93529.97;1766699;79;21081;-87
2021/09/11 00:22:42;;;;;;;10.72;6.67;;;;;;;6.62;92.33;93526.84;1771577;79;21053;-89
2021/09/11 00:25:10;;;;;;;13.25;6.60;;;;;;;6.59;92.23;93528.95;1759153;78;21031;-89
2021/09/11 00:27:36;;;;;;;11.12;5.87;;;;;;;6.55;92.52;93523.50;1789697;79;21139;-86
2021/09/11 00:30:05;;;;;;;10.25;5.83;;;;;;;6.52;92.33;93521.52;1710829;81;21580;-89
2021/09/11 00:32:32;;;;;;;9.08;5.90;;;;;;;6.51;92.38;93521.33;1775764;78;21023;-89
2021/09/11 00:35:08;;;;;;;12.58;6.62;;;;;;;6.47;92.38;93519.12;1793954;78;21043;-91
2021/09/11 00:37:46;;;;;;;13.40;6.20;;;;;;;6.46;92.40;93525.68;1793502;78;20966;-89
2021/09/11 00:40:16;;;;;;;9.28;6.03;;;;;;;6.41;92.64;93531.41;1780356;78;21128;-90
2021/09/11 00:43:04;;;;;;;14.18;5.85;;;;;;;6.40;92.55;93529.28;1785582;78;21646;-90
2021/09/11 00:45:36;;;;;;;11.20;5.58;;;;;;;6.36;92.34;93525.76;1782093;78;21092;-90
2021/09/11 00:48:05;;;;;;;9.73;5.78;;;;;;;6.33;92.41;93522.44;1843679;75;21528;-91
2021/09/11 00:50:34;;;;;;;10.72;5.97;;;;;;;6.32;92.27;93523.02;1740215;78;21041;-88
2021/09/11 00:53:06;;;;;;;12.65;5.40;;;;;;;6.27;92.30;93518.48;1771174;78;22313;-88
2021/09/11 00:55:34;;;;;;;9.60;6.08;;;;;;;6.19;92.10;93514.91;1784982;77;21613;-89
2021/09/11 00:58:02;;;;;;;10.60;5.97;;;;;;;6.10;92.44;93520.38;1820230;76;21073;-91
2021/09/11 01:00:29;;;;;;;9.30;5.80;;;;;;;6.00;92.96;93513.67;1757555;78;21100;-87
2021/09/11 01:02:56;;;;;;;11.95;6.40;;;;;;;5.87;93.46;93518.47;1752852;79;21176;-89
2021/09/11 01:05:22;;;;;;;11.08;7.08;;;;;;;5.79;94.03;93512.19;1744693;79;21087;-90
2021/09/11 01:07:50;;;;;;;12.05;6.22;;;;;;;5.79;94.41;93512.73;1771806;79;21078;-90
2021/09/11 01:10:17;;;;;;;10.45;6.15;;;;;;;5.83;94.40;93516.30;1776338;77;21097;-89
2021/09/11 01:12:44;;;;;;;12.60;6.03;;;;;;;5.87;94.14;93514.42;1768313;79;21029;-90
2021/09/11 01:15:12;;;;;;;9.65;5.80;;;;;;;5.89;94.05;93508.66;1805785;77;21567;-88
2021/09/11 01:17:45;;;;;;;7.95;5.62;;;;;;;5.88;93.87;93514.63;1803821;76;21034;-90
2021/09/11 01:20:14;;;;;;;7.90;5.60;;;;;;;5.85;93.84;93509.95;1739171;80;21581;-90
2021/09/11 01:22:42;;;;;;;9.20;5.90;;;;;;;5.77;93.84;93516.38;1728531;80;21134;-89
2021/09/11 01:25:12;;;;;;;12.63;6.87;;;;;;;5.64;94.08;93509.61;1700307;78;21098;-90
2021/09/11 01:27:48;;;;;;;13.35;6.50;;;;;;;5.57;94.83;93510.29;1774260;77;21121;-91
2021/09/11 02:03:32;;;;;;;12.63;8.38;;;;;;;5.56;94.93;93508.71;1771134;77;61707;-90
2021/09/11 02:05:59;;;;;;;13.35;7.58;;;;;;;5.56;94.81;93512.76;1786544;78;21116;-90
2021/09/11 02:08:25;;;;;;;9.68;6.12;;;;;;;5.56;94.36;93512.19;1784394;78;21292;-87
2021/09/11 02:10:53;;;;;;;9.15;5.53;;;;;;;5.51;93.85;93511.15;1791988;77;21057;-89
2021/09/11 02:13:19;;;;;;;13.15;5.97;;;;;;;5.43;94.05;93512.75;1797097;77;21077;-91
2021/09/11 02:15:46;;;;;;;8.05;5.72;;;;;;;5.36;94.20;93508.78;1803751;77;21035;-89
2021/09/11 02:18:20;;;;;;;12.05;5.97;;;;;;;5.32;94.68;93513.91;1799494;77;21079;-90
2021/09/11 02:20:58;;;;;;;9.30;5.00;;;;;;;5.30;95.12;93510.78;1795000;77;21040;-91
2021/09/11 02:23:33;;;;;;;12.35;6.15;;;;;;;5.31;95.61;93509.09;1819750;77;21213;-88
2021/09/11 02:26:13;;;;;;;13.65;5.80;;;;;;;5.31;95.62;93508.31;1792557;78;21117;-92
2021/09/11 02:28:46;;;;;;;10.43;6.05;;;;;;;5.26;96.00;93513.98;1839593;76;20928;-90
2021/09/11 02:31:24;;;;;;;11.00;5.53;;;;;;;5.27;96.09;93508.83;1840667;76;21471;-89
2021/09/11 02:33:51;;;;;;;7.90;5.45;;;;;;;5.28;96.04;93511.72;1815551;77;21076;-90
2021/09/11 02:36:25;;;;;;;9.48;5.75;;;;;;;5.28;95.39;93507.68;1826408;77;20942;-90
2021/09/11 02:38:57;;;;;;;12.85;5.47;;;;;;;5.24;95.17;93510.31;1815531;77;21052;-89
2021/09/11 02:41:23;;;;;;;9.43;5.28;;;;;;;5.15;95.37;93512.45;1815772;78;20963;-87
2021/09/11 02:43:52;;;;;;;11.20;6.30;;;;;;;5.08;95.62;93513.69;1794710;77;21100;-89
2021/09/11 02:46:18;;;;;;;12.33;5.45;;;;;;;4.97;95.87;93510.02;1757069;78;21653;-89
2021/09/11 02:48:48;;;;;;;10.45;6.25;;;;;;;4.92;96.37;93504.33;1808647;78;21294;-88
2021/09/11 02:51:16;;;;;;;9.83;5.60;;;;;;;4.88;96.47;93502.91;1819276;77;21033;-90
2021/09/11 02:53:44;;;;;;;11.48;6.22;;;;;;;4.87;96.71;93506.75;1821695;77;21068;-90
2021/09/11 02:56:10;;;;;;;12.65;6.33;;;;;;;4.86;96.88;93512.52;1821053;76;21117;-87
2021/09/11 02:58:36;;;;;;;15.95;6.80;;;;;;;4.86;97.26;93507.90;1821465;77;21619;-89
2021/09/11 03:01:05;;;;;;;11.95;6.37;;;;;;;4.93;97.63;93509.15;1819031;77;21205;-89
2021/09/11 03:03:31;;;;;;;9.13;5.20;;;;;;;4.98;97.58;93512.34;1815824;77;21134;-89
2021/09/11 03:05:57;;;;;;;9.75;5.42;;;;;;;5.01;97.20;93511.64;1814792;77;21521;-89
2021/09/11 03:08:24;;;;;;;8.25;5.50;;;;;;;5.00;97.05;93511.98;1808367;77;21576;-88
2021/09/11 03:10:52;;;;;;;15.43;5.42;;;;;;;5.01;96.55;93510.86;1807836;77;21062;-89
2021/09/11 03:13:19;;;;;;;8.35;5.87;;;;;;;4.98;96.16;93517.73;1807702;77;20995;-90
2021/09/11 03:15:46;;;;;;;11.57;6.50;;;;;;;4.92;96.08;93512.41;1814738;77;21014;-89
2021/09/11 03:18:14;;;;;;;11.40;5.80;;;;;;;4.86;96.13;93509.25;1767803;77;21394;-86
2021/09/11 03:20:41;;;;;;;10.13;6.53;;;;;;;4.85;96.50;93502.84;1780919;77;21427;-89
2021/09/11 03:23:09;;;;;;;10.70;5.58;;;;;;;4.88;96.82;93509.66;1850392;75;21045;-88
2021/09/11 03:25:35;;;;;;;13.03;5.72;;;;;;;4.90;96.74;93505.84;1823472;76;21053;-89
2021/09/11 03:28:02;;;;;;;13.22;6.20;;;;;;;4.85;96.87;93510.39;1823385;77;21037;-89
2021/09/11 03:30:28;;;;;;;11.15;6.05;;;;;;;4.83;97.14;93505.91;1821423;77;21261;-90
2021/09/11 03:32:57;;;;;;;8.78;6.47;;;;;;;4.85;97.08;93500.96;1825512;76;21088;-89
2021/09/11 03:35:23;;;;;;;12.43;7.58;;;;;;;4.81;96.63;93499.31;1827929;76;21595;-88
2021/09/11 03:37:53;;;;;;;16.30;9.00;;;;;;;4.74;96.37;93497.83;1792348;77;21122;-89
2021/09/11 03:40:21;;;;;;;15.75;8.95;;;;;;;4.69;96.42;93498.90;1782210;79;20990;-88
2021/09/11 03:42:49;;;;;;;9.60;6.83;;;;;;;4.67;96.54;93503.10;1830062;76;21729;-89
2021/09/11 03:45:17;;;;;;;9.28;6.72;;;;;;;4.68;96.62;93501.39;1822133;76;21882;-88
2021/09/11 03:47:45;;;;;;;9.60;6.87;;;;;;;4.71;96.59;93507.98;1818309;76;21077;-90
2021/09/11 03:50:12;;;;;;;10.98;7.80;;;;;;;4.71;96.62;93499.91;1790164;79;20966;-90
2021/09/11 03:59:56;;;;;;;12.40;9.10;;;;;;;4.71;96.57;93501.25;1808045;77;21113;-88
2021/09/11 04:02:24;;;;;;;12.63;6.92;;;;;;;4.70;96.58;93502.37;1765843;78;21049;-88
2021/09/11 04:04:51;;;;;;;12.23;6.12;;;;;;;4.71;96.46;93509.34;1784757;78;21018;-87
2021/09/11 04:07:18;;;;;;;10.43;6.03;;;;;;;4.72;96.57;93504.92;1796502;78;21025;-87
2021/09/11 04:09:44;;;;;;;11.15;6.58;;;;;;;4.74;96.46;93504.56;1758670;80;21631;-89
2021/09/11 04:12:13;;;;;;;28.70;21.52;;;;;;;4.69;96.32;93503.52;1770079;80;21054;-89
2021/09/11 04:14:39;;;;;;;15.32;9.88;;;;;;;4.68;95.80;93504.66;1773893;78;21041;-88
2021/09/11 04:17:08;;;;;;;17.65;12.18;;;;;;;4.69;95.55;93505.63;1783300;78;21332;-90
2021/09/11 04:19:35;;;;;;;16.37;9.53;;;;;;;4.70;95.74;93503.72;1765519;80;21026;-89
2021/09/11 04:22:02;;;;;;;13.93;8.58;;;;;;;4.73;95.54;93501.66;1802353;78;21423;-89
2021/09/11 04:24:30;;;;;;;9.58;6.47;;;;;;;4.73;95.54;93501.66;1786801;79;21565;-88
2021/09/11 04:42:33;;;;;;;40.63;23.80;;;;;;;4.62;95.51;93505.49;1759940;79;21072;-90
2021/09/11 04:45:00;;;;;;;42.98;22.42;;;;;;;4.67;95.47;93510.61;1826185;76;21016;-90
2021/09/11 04:47:27;;;;;;;22.32;12.82;;;;;;;4.68;95.42;93510.81;1794130;77;21591;-90
2021/09/11 04:49:53;;;;;;;21.15;13.72;;;;;;;4.70;95.15;93514.48;1821176;75;21851;-90
2021/09/11 04:52:20;;;;;;;16.97;10.80;;;;;;;4.69;95.34;93512.94;1784395;78;21802;-90
2021/09/11 04:54:46;;;;;;;13.00;9.15;;;;;;;4.71;95.23;93518.19;1781623;78;21068;-90
2021/09/11 04:57:13;;;;;;;15.43;9.03;;;;;;;4.77;95.26;93518.67;1816144;78;21013;-87
2021/09/11 04:59:39;;;;;;;14.00;7.97;;;;;;;4.82;95.23;93513.79;1780896;78;21069;-90
2021/09/11 05:02:06;;;;;;;12.40;7.75;;;;;;;4.92;95.18;93518.38;1825043;76;21040;-87
2021/09/11 05:04:32;;;;;;;12.53;7.72;;;;;;;5.02;95.29;93517.80;1798684;76;21103;-90
2021/09/11 05:06:59;;;;;;;11.05;7.50;;;;;;;5.16;95.19;93516.72;1793188;76;21072;-89
2021/09/11 05:09:26;;;;;;;9.65;7.22;;;;;;;5.26;94.76;93516.11;1836297;76;21115;-88
2021/09/11 05:11:54;;;;;;;12.60;6.65;;;;;;;5.34;94.60;93517.02;1840915;75;21096;-88
2021/09/11 05:14:22;;;;;;;10.80;7.67;;;;;;;5.45;94.63;93510.45;1797913;77;21115;-88
2021/09/11 05:16:48;;;;;;;19.42;12.78;;;;;;;5.45;94.02;93519.89;1827416;76;21099;-88
2021/09/11 05:19:17;;;;;;;14.75;10.90;;;;;;;5.45;94.07;93520.67;1833150;76;21710;-87
2021/09/11 05:21:46;;;;;;;13.98;8.95;;;;;;;5.48;93.72;93505.70;1803537;77;21041;-88
2021/09/11 05:24:15;;;;;;;10.75;8.63;;;;;;;5.48;93.69;93509.16;1846092;76;21112;-89
2021/09/11 05:26:45;;;;;;;13.95;10.65;;;;;;;5.51;93.54;93513.07;1799995;78;21694;-88
2021/09/11 05:29:12;;;;;;;16.52;11.25;;;;;;;5.53;93.47;93509.45;1792029;75;21635;-89
2021/09/11 05:31:39;;;;;;;12.60;9.13;;;;;;;5.58;93.72;93508.56;1844893;75;20951;-87
2021/09/11 05:34:05;;;;;;;12.18;8.30;;;;;;;5.67;93.59;93511.02;1851839;75;21073;-90
2021/09/11 05:36:33;;;;;;;12.80;8.18;;;;;;;5.76;93.37;93504.81;1849111;75;21044;-88
2021/09/11 05:39:00;;;;;;;19.77;13.72;;;;;;;5.88;93.01;93507.87;1825852;76;21112;-86
2021/09/11 05:41:26;;;;;;;19.60;14.23;;;;;;;5.95;92.88;93508.02;1843635;75;21052;-87
2021/09/11 05:43:53;;;;;;;20.95;13.98;;;;;;;6.04;92.98;93503.12;1850196;75;21072;-88
2021/09/11 05:46:20;;;;;;;18.42;13.53;;;;;;;6.14;93.16;93499.03;1848622;75;21162;-86
2021/09/11 05:48:47;;;;;;;18.90;10.45;;;;;;;6.27;93.37;93491.48;1832089;76;21436;-87
2021/09/11 05:51:14;;;;;;;14.75;9.83;;;;;;;6.44;93.02;93496.92;1853100;75;21010;-89
2021/09/11 05:53:41;;;;;;;14.53;9.75;;;;;;;6.59;92.57;93494.59;1826665;75;21122;-88
2021/09/11 05:56:08;;;;;;;12.60;9.23;;;;;;;6.71;92.39;93490.30;1821822;77;21119;-86
2021/09/11 05:58:34;;;;;;;14.23;9.43;;;;;;;6.82;92.47;93486.38;1795013;77;21135;-88
2021/09/11 06:01:01;;;;;;;14.95;8.15;;;;;;;6.98;92.40;93486.15;1789828;78;21072;-90
2021/09/11 06:03:27;;;;;;;13.73;9.27;;;;;;;7.14;92.44;93485.34;1817393;77;21629;-89
2021/09/11 06:05:55;;;;;;;11.73;8.28;;;;;;;7.29;91.85;93484.91;1791022;77;21352;-87
2021/09/11 06:08:21;;;;;;;12.88;9.63;;;;;;;7.45;91.44;93483.33;1796209;78;21691;-87
2021/09/11 06:10:48;;;;;;;13.78;8.05;;;;;;;7.64;91.00;93489.09;1804014;75;21033;-87
2021/09/11 06:13:16;;;;;;;11.28;8.13;;;;;;;7.77;90.60;93484.35;1828130;75;21085;-87
2021/09/11 06:15:44;;;;;;;11.88;8.38;;;;;;;7.93;90.32;93485.43;1835099;76;21045;-88
2021/09/11 06:18:10;;;;;;;14.07;8.03;;;;;;;8.08;89.67;93479.53;1817570;76;21099;-88
2021/09/11 06:20:38;;;;;;;12.53;7.97;;;;;;;8.19;89.24;93477.67;1852008;75;21009;-88
2021/09/11 06:23:06;;;;;;;16.85;9.05;;;;;;;8.25;88.69;93475.39;1798314;75;21052;-88
2021/09/11 06:25:33;;;;;;;13.05;8.33;;;;;;;8.32;88.72;93482.20;1818194;77;21013;-89
2021/09/11 06:28:00;;;;;;;17.77;8.98;;;;;;;8.43;89.00;93480.95;1787613;77;21063;-87
2021/09/11 06:30:29;;;;;;;9.90;7.12;;;;;;;8.61;89.35;93478.30;1836907;77;21243;-87
2021/09/11 06:39:17;;;;;;;14.78;8.30;;;;;;;9.30;89.10;93482.80;1806797;75;21101;-89
2021/09/11 06:41:43;;;;;;;14.83;8.85;;;;;;;9.60;88.00;93475.66;1766673;77;21143;-89
2021/09/11 06:44:10;;;;;;;14.53;8.45;;;;;;;9.83;87.78;93476.05;1844794;75;21171;-86
2021/09/11 06:46:37;;;;;;;10.65;6.95;;;;;;;10.05;87.55;93476.03;1839351;75;21140;-88
2021/09/11 06:49:04;;;;;;;12.50;7.40;;;;;;;10.26;86.49;93478.73;1820013;74;21036;-86
2021/09/11 06:51:32;;;;;;;11.05;7.30;;;;;;;10.40;85.35;93478.70;1806908;75;20980;-86
2021/09/11 06:53:59;;;;;;;18.73;10.20;;;;;;;10.55;85.26;93475.38;1842642;75;21475;-86
2021/09/11 06:56:25;;;;;;;17.87;11.57;;;;;;;10.76;85.04;93473.17;1842048;75;21119;-86
2021/09/11 06:58:53;;;;;;;17.50;10.60;;;;;;;11.03;85.28;93470.72;1809370;75;21177;-87
2021/09/11 07:01:21;;;;;;;14.03;7.92;;;;;;;11.41;84.74;93471.67;1836380;75;21460;-89
2021/09/11 07:03:51;;;;;;;8.68;6.15;;;;;;;11.78;82.42;93464.80;1832380;75;21072;-87
2021/09/11 07:06:18;;;;;;;8.80;6.28;;;;;;;12.05;80.46;93461.50;1801919;76;21013;-87
2021/09/11 07:08:46;;;;;;;10.88;7.17;;;;;;;12.25;79.63;93465.20;1827500;75;21387;-87
2021/09/11 07:11:14;;;;;;;8.83;6.17;;;;;;;12.38;78.76;93460.80;1853698;74;21877;-86
2021/09/11 07:13:41;;;;;;;12.75;7.25;;;;;;;12.54;78.07;93460.83;1857987;74;21004;-86
2021/09/11 07:16:08;;;;;;;9.48;6.80;;;;;;;12.62;78.55;93453.52;1849102;74;21388;-89
2021/09/11 07:18:35;;;;;;;10.32;6.03;;;;;;;12.71;78.03;93454.38;1852047;75;21033;-87
2021/09/11 07:21:03;;;;;;;8.55;5.30;;;;;;;12.88;77.84;93455.37;1856691;75;21385;-89
2021/09/11 07:23:29;;;;;;;6.62;5.33;;;;;;;13.04;76.02;93453.41;1858802;75;21595;-88
2021/09/11 07:25:57;;;;;;;13.13;6.33;;;;;;;13.20;75.81;93450.08;1859787;75;21384;-88
2021/09/11 07:28:23;;;;;;;9.05;6.00;;;;;;;13.35;74.95;93447.36;1861126;75;21011;-87
2021/09/11 07:30:50;;;;;;;7.97;6.17;;;;;;;13.50;74.96;93452.03;1857648;75;21100;-87
2021/09/11 07:33:16;;;;;;;10.78;7.05;;;;;;;13.66;73.93;93452.20;1853921;75;21055;-90
2021/09/11 07:35:43;;;;;;;12.20;7.00;;;;;;;13.78;74.42;93452.21;1858850;75;21049;-87
2021/09/11 07:38:14;;;;;;;10.25;6.08;;;;;;;13.88;73.55;93453.22;1862205;75;21052;-89
2021/09/11 07:40:40;;;;;;;11.43;6.65;;;;;;;13.95;73.07;93453.10;1854002;75;21716;-85
2021/09/11 07:43:06;;;;;;;9.30;5.35;;;;;;;14.04;73.79;93458.23;1830269;75;21403;-91
2021/09/11 07:45:33;;;;;;;7.55;5.72;;;;;;;14.13;72.39;93454.19;1835278;77;21066;-86
2021/09/11 07:47:59;;;;;;;9.18;5.33;;;;;;;14.18;72.21;93459.16;1830313;77;21642;-90
2021/09/11 07:50:28;;;;;;;9.68;6.40;;;;;;;14.23;71.05;93444.44;1834130;75;21006;-90
2021/09/11 07:52:54;;;;;;;10.45;5.55;;;;;;;14.31;70.36;93447.81;1851960;74;21001;-87
2021/09/11 07:55:21;;;;;;;7.90;5.12;;;;;;;14.39;70.09;93443.76;1821363;75;21042;-87
2021/09/11 07:57:47;;;;;;;23.45;7.58;;;;;;;14.46;69.89;93437.39;1861577;75;21042;-90
2021/09/11 08:00:15;;;;;;;9.55;6.10;;;;;;;14.51;69.94;93436.92;1855311;75;21070;-89
2021/09/11 08:02:41;;;;;;;8.88;5.42;;;;;;;14.57;69.31;93434.66;1853506;74;21057;-88
2021/09/11 08:05:10;;;;;;;11.12;6.22;;;;;;;14.65;68.74;93437.27;1857138;75;21021;-89
2021/09/11 08:07:38;;;;;;;10.08;6.00;;;;;;;14.76;68.49;93439.20;1855320;73;21092;-86
2021/09/11 08:10:05;;;;;;;14.20;5.97;;;;;;;14.90;67.15;93433.45;1850332;76;21861;-90
2021/09/11 08:12:31;;;;;;;10.00;6.40;;;;;;;15.06;66.67;93432.13;1850606;75;21084;-89
2021/09/11 08:14:59;;;;;;;9.65;6.37;;;;;;;15.18;66.24;93426.59;1815464;76;21075;-86
2021/09/11 08:17:25;;;;;;;9.80;6.83;;;;;;;15.28;66.77;93426.97;1861199;75;20985;-89
2021/09/11 08:19:54;;;;;;;10.60;6.72;;;;;;;15.39;66.08;93424.60;1855402;75;21057;-89
2021/09/11 08:22:20;;;;;;;8.38;5.75;;;;;;;15.49;67.36;93422.97;1851906;75;21043;-89
2021/09/11 08:24:48;;;;;;;9.50;5.83;;;;;;;15.63;67.63;93414.27;1850003;75;21123;-87
2021/09/11 08:27:15;;;;;;;8.75;5.80;;;;;;;15.79;66.92;93412.31;1843865;76;21017;-89
2021/09/11 08:29:42;;;;;;;8.18;5.50;;;;;;;15.96;64.69;93414.47;1850487;75;20977;-88
2021/09/11 08:32:10;;;;;;;9.35;5.60;;;;;;;16.12;65.39;93414.28;1844692;75;21340;-89
2021/09/11 08:34:36;;;;;;;10.03;6.28;;;;;;;16.25;63.75;93402.19;1797594;76;21739;-87
2021/09/11 08:37:03;;;;;;;10.98;6.80;;;;;;;16.40;63.14;93408.69;1776941;78;21096;-88
2021/09/11 08:39:31;;;;;;;10.55;7.08;;;;;;;16.53;63.34;93402.63;1791754;75;20980;-90
2021/09/11 08:41:58;;;;;;;10.68;6.47;;;;;;;16.66;62.85;93404.84;1834414;77;22167;-88
2021/09/11 08:44:25;;;;;;;13.08;6.78;;;;;;;16.80;61.63;93397.42;1839811;76;21507;-90
2021/09/11 08:46:54;;;;;;;16.45;6.65;;;;;;;16.91;58.10;93399.27;1810124;77;21037;-87
2021/09/11 08:49:21;;;;;;;9.88;6.40;;;;;;;17.03;59.88;93395.00;1861124;74;20951;-87
2021/09/11 08:51:47;;;;;;;9.13;5.80;;;;;;;17.17;60.89;93391.84;1867324;74;21026;-90
2021/09/11 08:54:18;;;;;;;8.43;5.45;;;;;;;17.30;60.66;93383.61;1819985;77;21041;-87
2021/09/11 08:56:44;;;;;;;10.70;6.50;;;;;;;17.42;60.32;93385.62;1814293;77;21056;-88
2021/09/11 08:59:16;;;;;;;10.13;6.67;;;;;;;17.50;59.54;93380.06;1871099;73;21044;-90
2021/09/11 09:01:43;;;;;;;8.13;6.28;;;;;;;17.59;58.76;93371.14;1835680;74;21044;-90
2021/09/11 09:04:10;;;;;;;8.28;6.05;;;;;;;17.62;58.36;93367.52;1822155;74;21025;-89
2021/09/11 09:06:36;;;;;;;8.18;6.20;;;;;;;17.65;58.30;93362.52;1830922;76;21151;-90
2021/09/11 09:09:14;;;;;;;9.23;5.90;;;;;;;17.73;58.19;93367.95;1813653;77;21019;-92
2021/09/11 09:11:44;;;;;;;7.92;5.87;;;;;;;17.81;57.78;93364.39;1843449;75;21048;-90
2021/09/11 09:35:25;;;;;;;7.00;5.00;;;;;;;18.09;55.06;93350.28;1873755;74;20955;-89
2021/09/11 09:38:09;;;;;;;7.78;5.22;;;;;;;18.19;53.64;93347.78;1845859;74;20943;-91
2021/09/11 09:55:42;;;;;;;4.75;3.85;;;;;;;18.70;47.44;93335.19;1731020;80;23429;-91
2021/09/11 09:58:09;;;;;;;8.83;3.67;;;;;;;18.75;46.27;93345.65;1707775;83;21706;-90
2021/09/11 10:00:35;;;;;;;3.60;2.65;;;;;;;18.83;44.81;93344.17;1706940;81;21124;-90
2021/09/11 10:03:04;;;;;;;12.05;2.33;;;;;;;18.90;41.75;93341.16;1655957;83;21094;-87
2021/09/11 10:05:31;;;;;;;9.58;2.77;;;;;;;18.97;39.11;93342.12;1653162;83;21083;-86
2021/09/11 10:08:07;;;;;;;4.53;2.77;;;;;;;19.03;36.18;93348.56;1700659;83;20999;-88
2021/09/11 10:10:39;;;;;;;2.70;2.15;;;;;;;19.07;36.85;93349.99;1696708;83;21082;-88
2021/09/11 10:13:17;;;;;;;4.37;3.00;;;;;;;19.12;36.82;93339.75;1698339;83;22283;-86
2021/09/11 10:16:08;;;;;;;3.45;3.00;;;;;;;19.19;36.29;93340.71;1677961;83;21080;-88
2021/09/11 10:18:41;;;;;;;5.25;3.10;;;;;;;19.25;35.62;93343.02;1661147;82;22251;-89
2021/09/11 10:21:43;;;;;;;5.08;2.80;;;;;;;19.34;36.42;93347.21;1646222;85;21094;-89
2021/09/11 10:24:25;;;;;;;2.98;2.62;;;;;;;19.40;35.23;93344.77;1641095;83;21705;-88
2021/09/11 10:27:08;;;;;;;3.77;2.02;;;;;;;19.47;33.91;93341.59;1703864;81;21138;-86
2021/09/11 10:29:51;;;;;;;3.22;2.92;;;;;;;19.52;35.01;93341.77;1708448;81;21248;-86
2021/09/11 10:32:32;;;;;;;5.70;3.37;;;;;;;19.58;34.29;93346.83;1692113;82;21091;-86
2021/09/11 10:34:56;;;;;;;4.80;3.08;;;;;;;19.63;34.81;93339.39;1691673;82;21170;-89
2021/09/11 10:37:33;;;;;;;2.98;2.37;;;;;;;19.69;35.83;93336.78;1703759;82;21074;-89
2021/09/11 10:40:26;;;;;;;4.40;3.40;;;;;;;19.76;35.94;93331.60;1633171;85;21116;-85
2021/09/11 10:43:29;;;;;;;5.65;3.27;;;;;;;19.85;37.52;93331.61;1694912;81;21021;-86
2021/09/11 10:46:07;;;;;;;4.90;3.50;;;;;;;19.95;38.22;93331.80;1695568;82;21047;-87
2021/09/11 10:48:47;;;;;;;5.95;3.30;;;;;;;20.02;39.31;93327.36;1729055;80;21646;-87
2021/09/11 10:51:21;;;;;;;7.05;3.75;;;;;;;20.08;39.41;93324.75;1696303;81;21345;-86
2021/09/11 10:54:23;;;;;;;8.10;5.60;;;;;;;20.13;36.63;93323.55;1693651;82;21818;-89
2021/09/11 10:57:02;;;;;;;5.62;4.35;;;;;;;20.18;37.53;93320.02;1714425;79;21047;-87
2021/09/11 10:59:38;;;;;;;6.65;4.12;;;;;;;20.23;38.49;93321.55;1737629;78;21089;-86
2021/09/11 11:02:33;;;;;;;4.65;3.62;;;;;;;20.26;39.94;93325.39;1710901;81;21145;-87
2021/09/11 11:05:08;;;;;;;8.75;4.05;;;;;;;20.28;38.60;93318.80;1689764;82;21077;-90
2021/09/11 11:10:12;;;;;;;7.10;5.00;;;;;;;20.36;43.07;93322.17;1705301;82;21355;-87
2021/09/11 11:12:44;;;;;;;6.53;5.22;;;;;;;20.41;44.98;93320.02;1752727;80;21090;-86
2021/09/11 11:15:21;;;;;;;9.13;5.35;;;;;;;20.44;45.29;93317.73;1706514;81;21019;-87
2021/09/11 11:17:49;;;;;;;9.28;5.85;;;;;;;20.45;45.88;93309.59;1706790;82;21553;-86
2021/09/11 11:20:25;;;;;;;10.85;5.97;;;;;;;20.51;47.30;93314.69;1667475;81;21055;-86
2021/09/11 11:23:00;;;;;;;9.38;5.33;;;;;;;20.56;47.27;93305.16;1688387;82;21125;-85
2021/09/11 11:25:35;;;;;;;12.85;5.67;;;;;;;20.63;47.40;93310.23;1723430;80;21065;-89
2021/09/11 11:28:02;;;;;;;;;;;;;;;20.68;46.73;93307.59;1746910;79;21077;-88
2021/09/11 11:30:29;;;;;;;10.25;6.78;;;;;;;20.71;47.26;93304.53;1741048;77;20220;-86
2021/09/11 11:33:00;;;;;;;10.98;6.75;;;;;;;20.69;46.53;93293.20;1720789;81;21076;-87
2021/09/11 11:35:28;;;;;;;10.13;6.40;;;;;;;20.68;47.08;93300.69;1696897;82;21091;-90
2021/09/11 11:37:55;;;;;;;15.03;6.58;;;;;;;20.65;47.11;93293.35;1709525;81;21093;-86
2021/09/11 11:40:21;;;;;;;9.75;7.00;;;;;;;20.63;47.51;93292.27;1740087;79;21032;-88
2021/09/11 11:42:50;;;;;;;11.70;6.55;;;;;;;20.64;47.70;93293.80;1741713;79;21148;-85
2021/09/11 11:45:17;;;;;;;12.37;6.00;;;;;;;20.61;44.55;93292.13;1703996;81;21203;-89
2021/09/11 11:54:48;;;;;;;12.68;6.58;;;;;;;20.63;47.33;93290.89;1656233;84;22270;-87
2021/09/11 11:57:21;;;;;;;13.50;6.20;;;;;;;20.64;47.18;93284.89;1640701;84;21101;-87
2021/09/11 12:00:00;;;;;;;11.03;6.50;;;;;;;20.61;47.55;93287.98;1686071;82;21435;-87
2021/09/11 12:02:30;;;;;;;18.55;8.38;;;;;;;20.65;47.18;93288.42;1658098;84;21098;-89
2021/09/11 12:05:17;;;;;;;9.50;6.12;;;;;;;20.68;47.81;93287.50;1652770;84;21088;-88
2021/09/11 12:07:54;;;;;;;8.88;5.87;;;;;;;20.71;47.38;93284.58;1652661;84;21007;-89
2021/09/11 12:10:27;;;;;;;11.28;6.28;;;;;;;20.74;46.86;93286.42;1691131;79;21008;-89
2021/09/11 12:12:59;;;;;;;10.20;6.40;;;;;;;20.76;46.61;93295.61;1695241;81;21106;-86
2021/09/11 12:15:26;;;;;;;11.12;5.92;;;;;;;20.75;46.02;93290.70;1689751;83;21162;-89
2021/09/11 12:18:10;;;;;;;10.58;6.53;;;;;;;20.74;46.47;93293.94;1693654;83;21612;-85
2021/09/11 12:20:46;;;;;;;9.65;5.90;;;;;;;20.73;46.13;93289.03;1679699;83;21159;-85
2021/09/11 12:23:21;;;;;;;15.13;5.90;;;;;;;20.73;45.47;93295.18;1680997;83;21078;-87
2021/09/11 12:26:04;;;;;;;18.15;13.72;;;;;;;20.69;45.85;93291.20;1700808;83;21688;-88
2021/09/11 12:28:45;;;;;;;22.30;15.30;;;;;;;20.65;45.64;93290.59;1692891;79;21136;-86
2021/09/11 12:31:25;;;;;;;15.98;9.68;;;;;;;20.64;45.47;93294.56;1695647;82;21095;-85
2021/09/11 12:34:03;;;;;;;9.80;6.30;;;;;;;20.58;45.94;93292.28;1690247;83;21103;-88
2021/09/11 12:36:41;;;;;;;14.63;6.70;;;;;;;20.51;45.51;93293.36;1657005;84;21195;-87
2021/09/11 12:39:22;;;;;;;9.50;6.15;;;;;;;20.46;45.38;93287.64;1684405;82;21078;-86
2021/09/11 12:41:49;;;;;;;20.08;6.25;;;;;;;20.42;45.36;93283.66;1694586;82;21070;-86
2021/09/11 12:44:20;;;;;;;13.25;5.42;;;;;;;20.39;44.78;93288.74;1695097;82;21113;-89
2021/09/11 12:46:56;;;;;;;14.18;6.50;;;;;;;20.41;44.57;93296.55;1702193;81;21093;-87
2021/09/11 12:49:26;;;;;;;12.45;6.28;;;;;;;20.42;45.36;93291.17;1704268;82;21441;-88
2021/09/11 12:51:53;;;;;;;10.18;6.12;;;;;;;20.45;45.10;93291.02;1703541;82;21531;-85
2021/09/11 12:54:21;;;;;;;11.33;5.35;;;;;;;20.49;44.80;93287.52;1704041;82;21132;-87
2021/09/11 12:56:49;;;;;;;9.63;5.62;;;;;;;20.53;44.29;93285.36;1703896;82;21086;-87
2021/09/11 12:59:16;;;;;;;8.63;5.90;;;;;;;20.57;43.87;93286.59;1691485;82;21608;-86
2021/09/11 13:01:43;;;;;;;8.08;5.50;;;;;;;20.60;43.81;93283.67;1693775;83;21185;-86
2021/09/11 13:04:13;;;;;;;8.73;5.67;;;;;;;20.65;43.63;93278.16;1696058;82;21694;-87
2021/09/11 13:06:40;;;;;;;12.15;5.97;;;;;;;20.68;43.84;93277.83;1699106;82;21130;-86
2021/09/11 13:09:09;;;;;;;10.78;6.60;;;;;;;20.73;43.95;93282.75;1702012;81;21131;-85
2021/09/11 13:11:38;;;;;;;22.15;6.10;;;;;;;20.76;44.11;93279.03;1697349;82;21058;-87
2021/09/11 13:14:07;;;;;;;15.30;6.17;;;;;;;20.81;44.46;93275.66;1700159;81;21118;-87
2021/09/11 13:16:35;;;;;;;15.30;6.47;;;;;;;20.85;43.97;93272.13;1701228;82;21238;-88
2021/09/11 13:25:10;;;;;;;22.02;7.20;;;;;;;20.95;43.74;93276.41;1692406;82;21733;-87
2021/09/11 13:27:37;;;;;;;13.78;7.42;;;;;;;20.95;44.62;93276.41;1704018;82;21288;-87
2021/09/11 13:30:04;;;;;;;13.83;7.92;;;;;;;20.93;45.25;93277.47;1702797;82;22035;-86
2021/09/11 13:32:31;;;;;;;17.17;7.20;;;;;;;20.90;45.87;93275.62;1699758;82;21046;-86
2021/09/11 13:34:57;;;;;;;15.20;8.33;;;;;;;20.88;46.08;93275.34;1704269;82;21118;-88
2021/09/11 13:37:24;;;;;;;10.60;6.03;;;;;;;20.84;45.10;93277.50;1682695;83;20969;-87